SBOSBO MAN / EGCC
Speedbird OnlineSpeedbird Online MAN / EGCC

Manchester Airport
21:28 10.5°C

Location Manchester, United Kingdom
Latitude: 53.35369873046875
Longitude: -2.2749500274658203
Web Airport Website | Wikipedia
Altitude 78 Meter / 257 Feet
Distance 262 KM / 163 Miles
from London.
Time Zone UTC +1 hours (Europe/London)
Codes IATA: MAN
ICAO: EGCC
Runways
RunwayLength (m)Surface
05L3048Asphalt
05R3050Concrete
23L3050Concrete
23R3048Asphalt
Radio
TypeDescriptionFrequency
APPAPP135
ATISATIS128.175
CLDCLNC DEL121.7
GNDGND121.85
TWRTWR118.625
TWR119.4
Live ATC
METAR EGCC 241950Z AUTO 04006KT 9999 NCD 11/07 Q1022 NOSIG
TAF TAF EGCC 241657Z 2418/2524 03010KT 9999 FEW020 BECMG 2418/2421 VRB03KT BECMG 2500/2503 4000 BR PROB30 2503/2508 0300 FG VV/// BECMG 2506/2509 9999 NSW BECMG 2512/2515 26010KT PROB30 TEMPO 2518/2521 8000 -RA BKN014 TEMPO 2521/2524 8000 -RA BKN012 PROB40 TEMPO 2521/2524 28015G30KT 4000 RA BKN008
Weather As Of 24 Sep 2022 21:28
Description Overcast clouds
Wind 11 km/h from North-East (40°)
Cloud Cover 92%
Precipitation Rain: none, Snow: none
Sunrise 06:58
Sunset 19:04
Lounges The Escape Lounge- Terminal 1, Terminal 1
Aspire Lounge (open with limited opening hours), Terminal 1
1903 Lounge , Terminal 2
Escape Lounge , Terminal 2
Escape Lounge TEMPORARILY CLOSED, Terminal 2
Rotations During the last 90 days there were
258 flights from LHR
34 flights from LGW
259 flights to LHR
34 flights to LGW


© 2017-2022 Speedbird Online